Time;durP1;ratioP1;P1;durP2;ratioP2;P2;SDS_P1;SDS_P2;PMS_P1;PMS_P2;Temp;Humidity;BMP_temperature;BMP_pressure;BME280_temperature;BME280_humidity;BME280_pressure;Samples;Min_cycle;Max_cycle;Signal;HPM_P1;HPM_P2
2020/12/05 00:00:29;;;;;;;38.10;19.97;;;;;;;1.63;82.41;99248.34;5112074;28;20088;-69
2020/12/05 00:02:54;;;;;;;43.63;19.60;;;;;;;1.64;82.52;99238.66;5095032;28;20069;-69
2020/12/05 00:05:20;;;;;;;42.50;22.13;;;;;;;1.69;82.70;99241.69;5095014;28;20043;-69
2020/12/05 00:07:45;;;;;;;39.10;20.67;;;;;;;1.68;82.45;99240.03;5112538;28;20084;-69
2020/12/05 00:10:10;;;;;;;46.03;21.43;;;;;;;1.63;82.87;99237.00;5111728;28;20088;-68
2020/12/05 00:12:36;;;;;;;43.27;22.37;;;;;;;1.64;82.94;99249.19;5094841;28;20035;-69
2020/12/05 00:15:02;;;;;;;43.07;20.87;;;;;;;1.62;82.77;99236.16;5112635;28;20031;-68
2020/12/05 00:17:27;;;;;;;46.13;23.25;;;;;;;1.63;82.61;99248.34;5112231;28;20070;-69
2020/12/05 00:19:53;;;;;;;52.63;23.63;;;;;;;1.62;82.80;99249.31;5094653;28;20067;-68
2020/12/05 00:22:18;;;;;;;45.83;21.43;;;;;;;1.59;82.87;99256.66;5112574;28;20042;-68
2020/12/05 00:24:44;;;;;;;49.23;24.80;;;;;;;1.60;83.29;99280.19;5111868;28;20039;-68
2020/12/05 00:27:09;;;;;;;50.92;24.33;;;;;;;1.55;83.32;99266.66;5094370;28;20039;-68
2020/12/05 00:29:35;;;;;;;56.40;26.30;;;;;;;1.54;83.77;99272.84;5112442;28;20050;-69
2020/12/05 00:32:01;;;;;;;55.30;25.10;;;;;;;1.48;84.17;99276.91;5094432;28;20039;-69
2020/12/05 00:34:26;;;;;;;53.90;26.55;;;;;;;1.48;84.19;99273.44;5112332;28;20035;-69
2020/12/05 00:36:52;;;;;;;87.43;26.37;;;;;;;1.47;84.49;99290.19;5111113;28;20073;-68
2020/12/05 00:39:17;;;;;;;54.30;30.25;;;;;;;1.38;84.58;99275.22;5112100;28;20039;-68
2020/12/05 00:41:43;;;;;;;55.20;28.17;;;;;;;1.36;85.04;99278.03;5111279;28;20051;-68
2020/12/05 00:44:08;;;;;;;51.67;26.10;;;;;;;1.29;85.15;99271.66;5112150;28;20032;-68
2020/12/05 00:46:33;;;;;;;55.67;28.47;;;;;;;1.36;85.25;99282.44;5093980;28;20658;-68
2020/12/05 00:48:59;;;;;;;58.63;27.20;;;;;;;1.30;84.92;99280.38;5111012;28;20123;-68
2020/12/05 00:51:25;;;;;;;57.08;29.17;;;;;;;1.19;84.99;99270.81;5112110;28;20459;-69
2020/12/05 00:53:51;;;;;;;60.85;30.05;;;;;;;1.16;85.65;99261.41;5112036;28;20059;-69
2020/12/05 00:56:19;;;;;;;54.67;28.02;;;;;;;1.18;85.61;99270.00;5110684;28;20047;-69
2020/12/05 00:58:45;;;;;;;61.83;29.42;;;;;;;1.15;85.83;99277.34;5094057;28;20039;-69
2020/12/05 01:01:12;;;;;;;54.33;27.97;;;;;;;1.16;85.88;99287.69;5094039;28;20506;-69
2020/12/05 01:03:37;;;;;;;63.38;29.77;;;;;;;1.15;85.82;99301.81;5111913;28;20035;-69
2020/12/05 01:06:02;;;;;;;59.30;27.07;;;;;;;1.16;85.69;99303.47;5111589;28;20069;-69
2020/12/05 01:08:28;;;;;;;59.33;30.23;;;;;;;1.10;85.77;99296.16;5094059;28;20035;-69
2020/12/05 01:10:53;;;;;;;57.47;27.70;;;;;;;1.08;85.94;99297.22;5093983;28;20039;-69
2020/12/05 01:13:18;;;;;;;65.07;29.07;;;;;;;1.03;86.25;99313.41;5111846;28;20070;-69
2020/12/05 01:15:44;;;;;;;55.83;27.40;;;;;;;1.04;86.30;99325.59;5111411;28;20059;-69
2020/12/05 01:18:09;;;;;;;67.60;30.30;;;;;;;1.08;86.19;99340.13;5093676;28;20068;-69
2020/12/05 01:20:34;;;;;;;61.30;31.03;;;;;;;0.99;86.01;99343.56;5076964;28;20510;-68
2020/12/05 01:23:00;;;;;;;61.73;28.37;;;;;;;1.01;86.02;99344.28;5111192;28;20096;-69
2020/12/05 01:25:25;;;;;;;61.90;29.17;;;;;;;0.91;86.37;99338.97;5111597;28;20096;-69
2020/12/05 01:27:50;;;;;;;69.80;31.67;;;;;;;0.93;86.60;99347.56;5093506;28;20039;-68
2020/12/05 01:30:16;;;;;;;62.90;29.03;;;;;;;0.82;86.45;99352.94;5093723;28;20101;-69
2020/12/05 01:32:41;;;;;;;62.13;31.50;;;;;;;0.80;86.82;99355.69;5111490;28;20092;-68
2020/12/05 01:35:06;;;;;;;63.20;30.00;;;;;;;0.87;86.95;99357.78;5093678;28;20036;-69
2020/12/05 01:37:32;;;;;;;68.53;31.80;;;;;;;0.87;86.94;99347.25;5111337;28;20111;-69
2020/12/05 01:39:57;;;;;;;63.50;30.00;;;;;;;0.74;86.52;99348.34;5093525;28;20042;-68
2020/12/05 01:42:23;;;;;;;66.93;31.97;;;;;;;0.73;87.29;99351.94;5111499;28;20058;-69
2020/12/05 01:44:48;;;;;;;69.83;30.27;;;;;;;0.63;86.80;99343.19;5111487;28;20281;-68
2020/12/05 01:47:14;;;;;;;65.70;31.23;;;;;;;0.43;86.78;99352.81;5109982;28;20038;-69
2020/12/05 01:49:40;;;;;;;66.15;31.83;;;;;;;0.50;87.76;99347.84;5093494;28;20130;-68
2020/12/05 01:52:06;;;;;;;71.15;30.13;;;;;;;0.46;87.28;99342.03;5076504;28;20039;-68
2020/12/05 01:54:32;;;;;;;67.28;30.25;;;;;;;0.32;87.17;99345.81;5111393;28;20054;-68
2020/12/05 01:57:02;;;;;;;66.53;29.55;;;;;;;0.25;87.39;99349.94;5110977;28;20453;-68
2020/12/05 01:59:28;;;;;;;69.95;33.63;;;;;;;0.34;88.49;99354.41;5110348;28;20066;-69
2020/12/05 02:02:00;;;;;;;70.55;33.65;;;;;;;0.53;88.33;99360.72;5111145;28;20916;-69
2020/12/05 02:04:32;;;;;;;65.40;32.15;;;;;;;0.39;87.74;99354.03;5111263;28;20040;-68
2020/12/05 02:07:16;;;;;;;64.15;29.33;;;;;;;0.29;87.18;99356.59;5092874;28;20067;-69
2020/12/05 02:09:45;;;;;;;59.60;30.85;;;;;;;0.30;87.57;99358.25;5093419;28;20082;-69
2020/12/05 02:12:38;;;;;;;68.53;32.53;;;;;;;0.26;87.57;99351.63;5093218;28;20047;-69
2020/12/05 02:15:10;;;;;;;65.07;32.50;;;;;;;0.26;87.83;99346.38;5111171;28;20071;-69
2020/12/05 02:17:39;;;;;;;70.60;31.52;;;;;;;0.30;88.05;99337.25;5110797;28;20127;-69
2020/12/05 02:20:09;;;;;;;66.93;33.13;;;;;;;0.31;87.89;99332.84;5111110;28;20070;-69
2020/12/05 02:22:42;;;;;;;74.20;33.85;;;;;;;0.35;88.23;99340.34;5110919;28;20039;-69
2020/12/05 02:25:10;;;;;;;68.05;31.55;;;;;;;0.37;88.13;99333.13;5111125;28;20042;-69
2020/12/05 02:27:35;;;;;;;71.07;32.53;;;;;;;0.47;88.23;99322.69;5092932;28;20072;-69
2020/12/05 02:30:03;;;;;;;72.63;33.67;;;;;;;0.60;88.05;99322.44;5111029;28;20460;-69
2020/12/05 02:32:28;;;;;;;72.13;33.67;;;;;;;0.73;87.97;99327.47;5093185;28;20056;-69
2020/12/05 02:34:54;;;;;;;67.43;31.77;;;;;;;0.80;87.51;99323.34;5113876;28;20943;-69
2020/12/05 02:37:24;;;;;;;65.45;31.50;;;;;;;0.81;87.60;99330.25;5096283;28;20073;-69
2020/12/05 02:39:50;;;;;;;66.78;30.80;;;;;;;0.84;87.36;99343.97;5096668;28;20471;-69
2020/12/05 02:42:15;;;;;;;64.47;30.67;;;;;;;0.84;86.93;99332.59;5079653;28;20380;-69
2020/12/05 02:44:48;;;;;;;72.80;33.20;;;;;;;0.87;87.15;99328.88;5096635;28;20031;-69
2020/12/05 02:47:15;;;;;;;72.40;34.00;;;;;;;0.83;86.97;99315.19;5096215;28;20038;-69
2020/12/05 02:49:41;;;;;;;65.25;31.17;;;;;;;0.86;87.09;99314.09;5096418;28;20066;-69
2020/12/05 02:52:07;;;;;;;;;;;;;;;0.86;87.02;99308.81;5114761;28;20436;-69
2020/12/05 02:54:32;;;;;;;63.92;30.05;;;;;;;0.87;86.94;99313.09;5096483;28;19912;-69
2020/12/05 02:57:01;;;;;;;62.23;31.60;;;;;;;0.88;87.05;99304.28;5113875;28;20038;-69
2020/12/05 02:59:27;;;;;;;71.55;32.72;;;;;;;0.88;87.18;99289.31;5114199;28;20043;-69
2020/12/05 03:01:53;;;;;;;69.32;32.28;;;;;;;0.90;87.35;99274.25;5096381;28;20128;-69
2020/12/05 03:04:18;;;;;;;71.18;32.15;;;;;;;0.90;87.10;99271.63;5113105;28;20067;-69
2020/12/05 03:06:44;;;;;;;71.17;32.83;;;;;;;0.97;87.04;99280.63;5112901;28;20369;-69
2020/12/05 03:09:09;;;;;;;70.13;32.20;;;;;;;0.96;87.04;99280.75;5113126;28;20039;-69
2020/12/05 03:11:35;;;;;;;70.60;32.37;;;;;;;1.08;87.32;99279.69;5096179;28;20039;-69
2020/12/05 03:14:00;;;;;;;74.65;33.38;;;;;;;1.15;86.82;99274.72;5113987;28;20119;-69
2020/12/05 03:16:25;;;;;;;62.97;33.00;;;;;;;1.17;86.93;99270.97;5095745;28;20036;-69
2020/12/05 03:18:51;;;;;;;70.43;32.63;;;;;;;1.18;86.83;99258.66;5078833;28;20530;-69
2020/12/05 03:21:16;;;;;;;69.63;31.87;;;;;;;1.20;86.58;99254.91;5112810;28;20209;-69
2020/12/05 03:23:45;;;;;;;67.35;33.90;;;;;;;1.20;86.58;99254.91;5113792;28;20074;-69
2020/12/05 03:26:13;;;;;;;62.35;29.95;;;;;;;1.23;86.36;99265.13;5113459;28;20032;-68
2020/12/05 03:28:39;;;;;;;71.95;32.80;;;;;;;1.22;86.59;99260.84;5095557;28;20087;-69
2020/12/05 03:31:05;;;;;;;72.25;33.85;;;;;;;1.24;86.76;99263.34;5095608;28;20092;-68
2020/12/05 03:33:32;;;;;;;69.57;32.33;;;;;;;1.25;86.61;99257.13;5113423;28;20416;-68
2020/12/05 03:35:57;;;;;;;66.35;31.73;;;;;;;1.24;86.39;99261.56;5113314;28;20039;-69
2020/12/05 03:38:23;;;;;;;69.70;32.67;;;;;;;1.32;86.39;99267.91;5113393;28;20494;-69
2020/12/05 03:40:48;;;;;;;70.57;31.77;;;;;;;1.31;86.55;99282.88;5095561;28;20038;-69
2020/12/05 03:43:13;;;;;;;66.27;31.77;;;;;;;1.35;86.32;99286.84;5095523;28;20437;-69
2020/12/05 03:45:39;;;;;;;74.87;36.50;;;;;;;1.37;86.31;99282.28;5094678;28;20402;-69
2020/12/05 03:48:04;;;;;;;66.93;30.53;;;;;;;1.42;85.95;99292.41;5095206;28;20046;-69
2020/12/05 03:50:29;;;;;;;61.73;30.70;;;;;;;1.41;85.78;99291.56;5095309;28;20035;-68
2020/12/05 03:52:55;;;;;;;65.80;30.53;;;;;;;1.41;85.65;99296.00;5095284;28;20039;-68
2020/12/05 03:55:20;;;;;;;68.13;31.00;;;;;;;1.44;85.77;99293.91;5095121;28;20106;-69
2020/12/05 03:57:46;;;;;;;70.93;33.25;;;;;;;1.42;85.75;99287.97;5112884;28;20843;-69
2020/12/05 04:00:11;;;;;;;69.83;33.57;;;;;;;1.44;85.53;99285.19;5095061;28;20044;-68
2020/12/05 04:02:36;;;;;;;75.63;34.57;;;;;;;1.44;85.50;99279.94;5094927;28;20132;-69
2020/12/05 04:05:02;;;;;;;69.20;32.97;;;;;;;1.44;85.72;99258.91;5112981;28;20039;-69
2020/12/05 04:07:27;;;;;;;67.83;32.53;;;;;;;1.43;85.68;99257.25;5112667;28;20104;-69
2020/12/05 04:09:52;;;;;;;77.97;35.70;;;;;;;1.43;85.77;99252.00;5111923;28;20035;-69
2020/12/05 04:12:18;;;;;;;68.00;32.80;;;;;;;1.42;85.26;99235.34;5111817;28;20035;-69
2020/12/05 04:14:43;;;;;;;72.87;34.57;;;;;;;1.40;85.71;99233.84;5112793;28;20035;-69
2020/12/05 04:17:08;;;;;;;70.80;32.10;;;;;;;1.39;85.67;99240.09;5112360;28;20345;-69
2020/12/05 04:19:34;;;;;;;72.43;34.43;;;;;;;1.43;85.69;99241.47;5094665;28;20467;-69
2020/12/05 04:22:01;;;;;;;67.30;32.40;;;;;;;1.42;85.84;99245.06;5094763;28;20376;-68
2020/12/05 04:24:26;;;;;;;70.63;33.10;;;;;;;1.41;85.53;99246.03;5112446;28;20047;-69
2020/12/05 04:26:53;;;;;;;64.03;32.47;;;;;;;1.44;85.27;99256.28;5111214;28;20051;-69
2020/12/05 04:29:18;;;;;;;65.68;32.67;;;;;;;1.50;85.04;99262.75;5111466;28;20526;-68
2020/12/05 04:31:43;;;;;;;63.80;33.30;;;;;;;1.50;85.11;99262.75;5077587;28;20023;-69
2020/12/05 04:34:09;;;;;;;65.73;32.27;;;;;;;1.46;84.82;99249.91;5112447;28;20285;-69
2020/12/05 04:36:34;;;;;;;66.43;31.67;;;;;;;1.50;84.75;99260.97;5112098;28;20035;-68
2020/12/05 04:38:59;;;;;;;72.73;33.70;;;;;;;1.51;84.67;99253.91;5111288;28;20043;-68
2020/12/05 04:41:25;;;;;;;68.50;32.60;;;;;;;1.53;84.49;99247.53;5112266;28;20039;-69
2020/12/05 04:43:50;;;;;;;73.17;33.23;;;;;;;1.53;84.50;99255.44;5094545;28;20043;-69
2020/12/05 04:46:17;;;;;;;69.17;30.53;;;;;;;1.56;84.20;99263.03;5094012;28;20047;-68
2020/12/05 04:48:43;;;;;;;66.60;30.98;;;;;;;1.57;84.21;99259.44;5077320;28;20506;-68
2020/12/05 04:51:16;;;;;;;72.88;34.03;;;;;;;1.59;84.48;99262.78;5094106;28;20032;-69
2020/12/05 04:53:45;;;;;;;59.75;29.27;;;;;;;1.59;84.54;99264.53;5112067;28;20039;-69
2020/12/05 04:56:13;;;;;;;75.15;33.90;;;;;;;1.66;84.26;99268.28;5110858;28;20126;-68
2020/12/05 04:58:45;;;;;;;68.05;33.30;;;;;;;1.63;84.10;99258.84;5111886;28;20045;-68
2020/12/05 05:01:17;;;;;;;66.97;32.50;;;;;;;1.63;84.14;99261.50;5111924;28;20457;-68
2020/12/05 05:03:44;;;;;;;70.43;31.95;;;;;;;1.63;84.06;99261.50;5094038;28;20047;-68
2020/12/05 05:06:19;;;;;;;72.90;32.47;;;;;;;1.65;84.29;99261.38;5093890;28;20043;-69
2020/12/05 05:08:45;;;;;;;70.13;33.72;;;;;;;1.67;84.14;99260.25;5094108;28;20067;-69
2020/12/05 05:11:12;;;;;;;;;;;;;;;1.70;83.96;99269.66;5112302;28;20130;-68
2020/12/05 05:14:15;;;;;;;69.55;32.53;;;;;;;1.69;83.98;99270.63;5093951;28;20025;-68
2020/12/05 05:16:41;;;;;;;65.30;32.20;;;;;;;1.69;84.02;99274.09;5095796;28;20138;-68
2020/12/05 05:19:21;;;;;;;65.97;32.38;;;;;;;1.70;83.95;99274.91;5111765;28;20582;-68
2020/12/05 05:21:47;;;;;;;62.88;31.80;;;;;;;1.74;84.11;99286.00;5111589;28;20197;-69
2020/12/05 05:24:17;;;;;;;64.63;31.10;;;;;;;1.77;83.94;99280.44;5111701;28;20445;-68
2020/12/05 05:26:44;;;;;;;64.88;31.95;;;;;;;1.77;83.94;99276.00;5111301;28;20042;-68
2020/12/05 05:29:26;;;;;;;62.88;31.65;;;;;;;1.76;84.28;99281.44;5093710;28;20468;-69
2020/12/05 05:31:57;;;;;;;62.85;32.17;;;;;;;1.74;84.10;99278.94;5111441;28;20035;-69
2020/12/05 05:34:23;;;;;;;67.78;32.67;;;;;;;1.83;83.97;99283.34;5110544;28;20036;-68
2020/12/05 05:36:49;;;;;;;69.20;32.25;;;;;;;1.88;83.77;99285.56;5093025;28;20099;-68
2020/12/05 05:39:16;;;;;;;67.00;29.75;;;;;;;1.90;83.50;99289.69;5111459;28;20028;-69
2020/12/05 05:41:47;;;;;;;65.25;30.10;;;;;;;1.92;83.30;99302.72;5111339;28;20039;-69
2020/12/05 05:44:15;;;;;;;63.03;31.05;;;;;;;1.88;83.54;99311.88;5111581;28;20474;-68
2020/12/05 05:46:43;;;;;;;62.08;32.10;;;;;;;1.96;83.28;99313.78;5110955;28;20096;-68
2020/12/05 05:49:14;;;;;;;64.78;32.00;;;;;;;1.93;83.27;99316.72;5111294;28;20120;-68
2020/12/05 05:51:41;;;;;;;63.10;31.95;;;;;;;1.96;83.16;99326.94;5093439;28;20456;-68
2020/12/05 05:54:15;;;;;;;66.07;30.67;;;;;;;1.94;83.23;99340.25;5111432;28;20360;-68
2020/12/05 05:57:08;;;;;;;63.72;30.98;;;;;;;1.92;83.74;99352.72;5110838;28;20084;-69
2020/12/05 05:59:36;;;;;;;60.47;31.52;;;;;;;1.94;83.48;99348.13;5111206;28;20028;-68
2020/12/05 06:02:03;;;;;;;70.25;34.20;;;;;;;1.94;83.88;99336.78;5093449;28;20100;-68
2020/12/05 06:04:42;;;;;;;66.10;33.40;;;;;;;1.94;83.83;99366.56;5111321;28;20062;-69
2020/12/05 06:07:13;;;;;;;66.35;31.63;;;;;;;2.00;83.71;99358.09;5110956;28;20142;-69
2020/12/05 06:09:53;;;;;;;66.70;32.78;;;;;;;2.02;83.68;99327.22;5115067;28;20024;-69
2020/12/05 06:12:33;;;;;;;69.13;34.40;;;;;;;2.03;83.75;99334.13;5097138;28;20502;-69
2020/12/05 06:14:58;;;;;;;63.67;32.05;;;;;;;2.01;83.66;99324.72;5097140;28;20080;-69
2020/12/05 06:17:24;;;;;;;63.83;31.03;;;;;;;1.99;83.86;99332.78;5113719;28;20067;-69
2020/12/05 06:19:52;;;;;;;64.30;31.85;;;;;;;2.03;83.31;99344.66;5114976;28;20032;-68
2020/12/05 06:22:43;;;;;;;63.53;30.20;;;;;;;2.00;83.47;99362.56;5113795;28;20046;-69
2020/12/05 06:25:10;;;;;;;61.97;31.13;;;;;;;1.98;83.64;99375.03;5097093;28;20035;-69
2020/12/05 06:27:40;;;;;;;67.30;32.65;;;;;;;2.00;83.58;99373.91;5114546;28;20036;-69
2020/12/05 06:30:07;;;;;;;62.15;32.25;;;;;;;2.02;83.00;99384.31;5114803;28;20035;-68
2020/12/05 06:32:46;;;;;;;68.82;33.78;;;;;;;2.03;83.06;99375.41;5114643;28;20035;-68
2020/12/05 06:35:21;;;;;;;69.72;32.78;;;;;;;2.72;82.83;99343.47;5113851;28;20465;-69
2020/12/05 06:37:48;;;;;;;60.58;29.42;;;;;;;2.50;82.08;99326.19;5096369;28;20036;-68
2020/12/05 06:40:13;;;;;;;65.10;31.67;;;;;;;2.23;82.43;99323.56;5096632;28;20046;-68
2020/12/05 06:42:41;;;;;;;66.67;33.63;;;;;;;2.15;82.67;99333.97;5114564;28;20032;-68
2020/12/05 06:45:06;;;;;;;66.43;32.92;;;;;;;2.05;83.11;99334.00;5114260;28;20483;-69
2020/12/05 06:47:32;;;;;;;63.67;33.03;;;;;;;2.07;83.01;99338.13;5114239;28;20032;-68
2020/12/05 06:49:59;;;;;;;72.20;34.30;;;;;;;2.06;83.02;99333.84;5113347;28;20038;-69
2020/12/05 06:52:24;;;;;;;72.07;34.38;;;;;;;2.04;83.07;99320.00;5113233;28;20300;-69
2020/12/05 06:55:10;;;;;;;69.30;31.57;;;;;;;2.01;83.29;99299.22;5096462;28;20031;-69
2020/12/05 06:57:37;;;;;;;62.80;30.55;;;;;;;2.01;83.40;99320.28;5113819;28;20050;-69
2020/12/05 07:00:18;;;;;;;69.82;31.58;;;;;;;1.97;83.39;99316.28;5114114;28;20063;-69
2020/12/05 07:02:49;;;;;;;66.93;32.70;;;;;;;1.91;83.89;99322.09;5096305;28;20039;-69
2020/12/05 07:05:25;;;;;;;72.38;33.25;;;;;;;1.86;84.06;99312.00;5114012;28;20031;-69
2020/12/05 07:07:53;;;;;;;71.55;32.58;;;;;;;1.82;84.22;99320.31;5113806;28;20036;-69
2020/12/05 07:10:20;;;;;;;64.40;31.10;;;;;;;1.86;84.32;99326.97;5113922;28;20035;-69
2020/12/05 07:12:46;;;;;;;65.15;31.13;;;;;;;1.86;84.29;99319.06;5095845;28;20131;-69
2020/12/05 07:15:26;;;;;;;65.93;33.47;;;;;;;1.86;84.12;99309.38;5095942;28;20046;-69
2020/12/05 07:17:53;;;;;;;65.95;32.42;;;;;;;1.85;84.07;99310.34;5095782;28;20043;-69
2020/12/05 07:20:18;;;;;;;66.45;32.35;;;;;;;1.84;84.07;99307.84;5112942;28;20123;-69
2020/12/05 07:22:46;;;;;;;67.17;31.40;;;;;;;1.87;83.64;99333.88;5095637;28;20118;-69
2020/12/05 07:25:11;;;;;;;68.63;32.70;;;;;;;1.86;83.65;99324.34;5095827;28;20039;-69
2020/12/05 07:27:37;;;;;;;64.17;29.63;;;;;;;1.87;83.73;99308.41;5095619;28;20050;-69
2020/12/05 07:30:05;;;;;;;65.65;31.30;;;;;;;1.87;83.55;99305.78;5113595;28;20055;-69
2020/12/05 07:32:35;;;;;;;69.38;31.90;;;;;;;1.83;83.34;99295.69;5113598;28;20065;-69
2020/12/05 07:35:05;;;;;;;66.00;34.33;;;;;;;1.78;83.68;99277.69;5113420;28;20134;-68
2020/12/05 07:37:33;;;;;;;66.43;31.52;;;;;;;1.79;83.20;99281.13;5078364;28;20031;-68
2020/12/05 07:39:59;;;;;;;69.72;33.90;;;;;;;1.76;83.26;99263.84;5095292;28;20036;-69
2020/12/05 07:42:31;;;;;;;68.18;32.17;;;;;;;1.77;83.24;99275.19;5078618;28;20036;-68
2020/12/05 07:45:05;;;;;;;59.30;30.33;;;;;;;1.77;83.35;99290.97;5095471;28;20043;-69
2020/12/05 07:47:31;;;;;;;64.95;32.25;;;;;;;1.78;83.22;99318.94;5113017;28;20027;-68
2020/12/05 07:49:57;;;;;;;62.13;30.80;;;;;;;1.80;83.43;99307.31;5095328;28;20515;-68
2020/12/05 07:52:23;;;;;;;76.47;35.60;;;;;;;1.83;83.31;99337.78;5112117;28;20067;-69
2020/12/05 07:54:59;;;;;;;67.38;32.30;;;;;;;1.83;83.18;99361.47;5113155;28;20439;-68
2020/12/05 07:57:26;;;;;;;71.28;33.58;;;;;;;1.79;83.21;99375.88;5094775;28;20361;-69
2020/12/05 08:00:01;;;;;;;65.50;31.65;;;;;;;1.73;83.28;99353.56;5112945;28;20100;-68
2020/12/05 08:02:35;;;;;;;65.75;32.33;;;;;;;1.78;83.17;99318.94;5112943;28;20050;-68
2020/12/05 08:05:32;;;;;;;62.15;31.48;;;;;;;1.78;83.26;99303.16;5112861;28;20047;-68
2020/12/05 08:08:01;;;;;;;63.55;30.40;;;;;;;1.74;82.93;99333.38;5112632;28;20039;-68
2020/12/05 08:10:32;;;;;;;65.97;33.03;;;;;;;1.75;83.21;99340.28;5112624;28;20047;-68
2020/12/05 08:13:17;;;;;;;65.80;31.75;;;;;;;1.73;83.30;99358.00;5094755;28;20035;-68
2020/12/05 08:15:43;;;;;;;;;;;;;;;1.75;83.19;99333.22;5077883;28;20475;-68
2020/12/05 08:18:09;;;;;;;;;;;;;;;1.76;83.17;99302.47;5078153;28;19911;-68
2020/12/05 08:20:42;;;;;;;62.58;31.45;;;;;;;1.78;83.17;99284.72;5094735;28;19911;-68
2020/12/05 08:23:07;;;;;;;64.93;32.38;;;;;;;1.77;83.00;99283.06;5094488;28;20053;-68
2020/12/05 08:25:33;;;;;;;68.60;33.33;;;;;;;1.70;82.76;99285.44;5112494;28;20032;-68
2020/12/05 08:27:59;;;;;;;71.78;35.30;;;;;;;1.80;82.98;99285.41;5112315;28;20028;-68
2020/12/05 08:30:25;;;;;;;60.20;30.17;;;;;;;1.81;82.75;99301.06;5094463;28;20423;-68
2020/12/05 08:33:02;;;;;;;67.40;32.13;;;;;;;1.85;82.87;99331.41;5112334;28;20039;-68
2020/12/05 08:35:32;;;;;;;64.30;33.00;;;;;;;1.78;83.00;99345.25;5111132;28;20040;-68
2020/12/05 08:38:01;;;;;;;60.63;30.60;;;;;;;1.76;83.08;99378.78;5094116;28;20038;-68
2020/12/05 08:40:26;;;;;;;68.38;33.70;;;;;;;1.77;83.06;99401.50;5111698;28;20039;-68
2020/12/05 08:42:51;;;;;;;64.27;32.73;;;;;;;1.80;82.89;99411.72;5111086;28;20059;-68
2020/12/05 08:45:18;;;;;;;64.87;32.60;;;;;;;1.80;82.93;99406.47;5112183;28;20039;-68
2020/12/05 08:47:45;;;;;;;64.85;33.47;;;;;;;1.77;83.15;99418.09;5111757;28;20072;-68
2020/12/05 08:50:24;;;;;;;67.53;32.80;;;;;;;1.75;83.25;99427.13;5077130;28;20047;-68
2020/12/05 08:52:53;;;;;;;71.88;36.63;;;;;;;1.76;83.35;99416.47;5093626;28;20108;-68
2020/12/05 08:55:26;;;;;;;65.70;33.15;;;;;;;1.76;83.03;99394.59;5093563;28;20119;-68
2020/12/05 08:57:59;;;;;;;70.43;34.30;;;;;;;1.78;83.24;99413.66;5111712;28;20096;-68
2020/12/05 09:00:26;;;;;;;64.55;33.42;;;;;;;1.80;83.32;99412.59;5093756;28;20028;-68
2020/12/05 09:02:52;;;;;;;73.50;33.20;;;;;;;1.82;83.24;99417.69;5077077;28;20047;-68
2020/12/05 09:05:17;;;;;;;64.07;31.10;;;;;;;1.84;83.04;99418.38;5094045;28;20050;-68
2020/12/05 09:07:57;;;;;;;62.92;28.63;;;;;;;1.84;82.42;99432.38;5111592;28;20039;-68
2020/12/05 09:10:25;;;;;;;68.20;32.25;;;;;;;1.87;82.56;99439.16;5111698;28;20031;-68
2020/12/05 09:12:50;;;;;;;64.25;30.77;;;;;;;1.81;82.51;99442.38;5076669;28;20463;-68
2020/12/05 09:15:16;;;;;;;62.90;30.02;;;;;;;1.80;82.26;99453.84;5093573;28;20039;-68
2020/12/05 09:17:42;;;;;;;73.72;32.33;;;;;;;1.76;82.18;99465.63;5093542;28;20031;-68
2020/12/05 09:20:15;;;;;;;60.60;30.70;;;;;;;1.78;82.06;99443.47;5093682;28;20067;-68
2020/12/05 09:22:48;;;;;;;69.63;31.50;;;;;;;1.84;82.48;99444.72;5111700;28;20042;-68
2020/12/05 09:25:30;;;;;;;53.30;28.27;;;;;;;1.76;81.15;99453.31;5093664;28;20039;-68
2020/12/05 09:27:56;;;;;;;60.85;29.85;;;;;;;1.67;81.23;99456.75;5093640;28;20043;-68
2020/12/05 09:30:23;;;;;;;60.70;30.63;;;;;;;1.66;81.17;99461.19;5093561;28;20042;-68
2020/12/05 09:32:51;;;;;;;64.78;30.90;;;;;;;1.64;80.91;99481.53;5110563;28;20054;-68
2020/12/05 09:35:18;;;;;;;64.32;29.55;;;;;;;1.59;81.26;99490.78;5111815;28;20044;-68
2020/12/05 09:37:45;;;;;;;61.10;29.42;;;;;;;1.59;80.82;99506.56;5111226;28;20104;-68
2020/12/05 09:40:14;;;;;;;67.75;28.73;;;;;;;1.57;81.13;99505.88;5111113;28;20719;-68
2020/12/05 09:42:41;;;;;;;61.83;32.22;;;;;;;1.53;81.00;99491.34;5112412;28;20114;-68
2020/12/05 09:45:08;;;;;;;62.30;29.52;;;;;;;1.42;81.28;99493.09;5097611;28;20055;-68
2020/12/05 09:47:33;;;;;;;60.97;29.63;;;;;;;1.40;81.67;99492.41;5097249;28;20384;-68
2020/12/05 09:49:59;;;;;;;56.50;27.70;;;;;;;1.48;81.00;99508.38;5114515;28;20024;-68
2020/12/05 09:52:24;;;;;;;63.45;30.58;;;;;;;1.39;80.96;99521.50;5115526;28;20036;-68
2020/12/05 09:54:51;;;;;;;59.70;29.02;;;;;;;1.42;81.26;99518.59;5115264;28;20027;-68
2020/12/05 09:57:16;;;;;;;60.13;28.90;;;;;;;1.48;81.19;99512.78;5097281;28;20047;-68
2020/12/05 09:59:43;;;;;;;57.80;29.23;;;;;;;1.23;81.77;99509.66;5115205;28;20088;-68
2020/12/05 10:02:08;;;;;;;;;;;;;;;1.17;82.18;99499.69;5115779;28;20460;-68
2020/12/05 10:04:33;;;;;;;67.40;31.40;;;;;;;1.19;82.30;99495.09;5097383;28;19915;-68
2020/12/05 10:06:58;;;;;;;63.80;30.97;;;;;;;1.18;81.94;99503.16;5114868;28;20036;-68
2020/12/05 10:09:24;;;;;;;64.87;30.50;;;;;;;1.23;82.22;99501.78;5114116;28;20084;-68
2020/12/05 10:11:49;;;;;;;60.57;29.80;;;;;;;1.18;82.16;99490.00;5114167;28;20514;-68
2020/12/05 10:14:15;;;;;;;58.97;29.63;;;;;;;1.21;82.15;99532.63;5115092;28;20035;-68
2020/12/05 10:16:40;;;;;;;56.83;29.13;;;;;;;1.29;81.90;99539.00;5114650;28;20032;-68
2020/12/05 10:19:05;;;;;;;64.33;31.63;;;;;;;1.26;81.98;99509.41;5096813;28;20104;-68
2020/12/05 10:21:31;;;;;;;57.60;28.13;;;;;;;1.09;82.58;99507.38;5114879;28;20054;-68
2020/12/05 10:23:56;;;;;;;66.40;28.53;;;;;;;1.11;82.67;99505.47;5114681;28;20118;-68
2020/12/05 10:26:21;;;;;;;60.17;29.60;;;;;;;1.08;82.58;99492.59;5079774;28;20368;-68
2020/12/05 10:28:47;;;;;;;58.03;29.07;;;;;;;1.16;82.35;99508.53;5096955;28;20036;-68
2020/12/05 10:31:12;;;;;;;62.77;31.03;;;;;;;1.17;82.09;99504.94;5096369;28;20089;-69
2020/12/05 10:33:37;;;;;;;60.13;30.27;;;;;;;1.17;82.26;99501.47;5114708;28;20055;-69
2020/12/05 10:36:03;;;;;;;57.33;27.47;;;;;;;1.30;81.25;99519.66;5096356;28;20043;-68
2020/12/05 10:38:28;;;;;;;62.03;32.47;;;;;;;1.21;81.77;99521.28;5114404;28;20040;-69
2020/12/05 10:40:54;;;;;;;62.20;31.90;;;;;;;1.12;81.94;99522.06;5096263;28;20114;-69
2020/12/05 10:43:20;;;;;;;;;;;;;;;1.12;82.33;99517.63;5114398;28;20088;-68
2020/12/05 10:45:45;;;;;;;65.13;30.42;;;;;;;1.18;81.88;99506.59;5079342;28;20015;-68
2020/12/05 10:48:10;;;;;;;59.23;29.90;;;;;;;1.14;81.93;99497.31;5114324;28;20028;-68
2020/12/05 10:50:36;;;;;;;57.50;30.47;;;;;;;1.21;81.98;99494.97;5113279;28;20349;-68
2020/12/05 10:53:01;;;;;;;57.13;28.47;;;;;;;1.19;81.70;99521.41;5079293;28;20471;-68
2020/12/05 10:55:26;;;;;;;63.27;29.73;;;;;;;1.18;81.62;99522.38;5094984;28;20114;-68
2020/12/05 10:57:52;;;;;;;59.97;29.53;;;;;;;1.18;81.85;99490.81;5114108;28;20126;-69
2020/12/05 11:00:17;;;;;;;61.87;28.33;;;;;;;1.22;81.34;99515.06;5114042;28;20035;-68
2020/12/05 11:02:42;;;;;;;55.70;29.00;;;;;;;1.19;81.46;99518.78;5114120;28;20050;-69
2020/12/05 11:05:08;;;;;;;64.13;31.40;;;;;;;1.18;81.78;99521.56;5096324;28;20036;-69
2020/12/05 11:07:33;;;;;;;61.17;30.27;;;;;;;1.18;81.86;99521.56;5113532;28;20070;-68
2020/12/05 11:09:58;;;;;;;60.30;29.47;;;;;;;1.20;81.80;99495.97;5114064;28;20051;-69
2020/12/05 11:12:24;;;;;;;64.50;31.40;;;;;;;1.18;81.89;99495.25;5096116;28;20096;-68
2020/12/05 11:14:49;;;;;;;54.80;28.53;;;;;;;1.21;81.76;99508.97;5095918;28;20077;-69
2020/12/05 11:17:14;;;;;;;61.73;28.73;;;;;;;1.22;81.61;99509.81;5113599;28;20043;-69
2020/12/05 11:19:40;;;;;;;58.70;29.37;;;;;;;1.13;81.84;99519.31;5095820;28;20035;-68
2020/12/05 11:22:05;;;;;;;61.33;29.20;;;;;;;1.30;81.70;99548.59;5113751;28;20043;-69
2020/12/05 11:24:30;;;;;;;66.67;30.97;;;;;;;1.24;81.75;99553.41;5095715;28;20035;-69
2020/12/05 11:26:55;;;;;;;60.93;30.70;;;;;;;1.19;81.71;99546.88;5113556;28;20462;-68
2020/12/05 11:29:21;;;;;;;65.37;30.67;;;;;;;1.31;81.83;99545.84;5095796;28;20379;-68